Time;durP1;ratioP1;P1;durP2;ratioP2;P2;SDS_P1;SDS_P2;PMS_P1;PMS_P2;Temp;Humidity;BMP_temperature;BMP_pressure;BME280_temperature;BME280_humidity;BME280_pressure;Samples;Min_cycle;Max_cycle;Signal;HPM_P1;HPM_P2
2022/03/31 00:00:16;;;;;;;61.08;17.35;;;;;;;10.24;100.00;98734.19;4922266;29;20044;-89
2022/03/31 00:02:42;;;;;;;44.58;16.83;;;;;;;10.12;100.00;98727.81;4922177;29;20465;-88
2022/03/31 00:05:08;;;;;;;45.83;17.23;;;;;;;10.12;100.00;98722.50;4904798;29;20040;-88
2022/03/31 00:07:33;;;;;;;48.20;16.45;;;;;;;10.41;100.00;98726.63;4920613;29;20047;-87
2022/03/31 00:09:59;;;;;;;44.67;16.63;;;;;;;10.17;100.00;98730.72;4923101;29;20044;-87
2022/03/31 00:12:25;;;;;;;44.53;15.70;;;;;;;10.36;100.00;98720.13;4923647;29;20104;-90
2022/03/31 00:14:51;;;;;;;41.92;15.27;;;;;;;10.40;100.00;98714.41;4922895;29;20500;-89
2022/03/31 00:17:17;;;;;;;50.33;15.75;;;;;;;10.41;100.00;98711.53;4924678;29;20036;-89
2022/03/31 00:19:42;;;;;;;36.85;13.88;;;;;;;10.31;100.00;98705.84;4925766;29;20064;-86
2022/03/31 00:22:08;;;;;;;39.28;14.60;;;;;;;10.19;100.00;98707.47;4925885;29;20046;-90
2022/03/31 00:24:34;;;;;;;33.88;14.63;;;;;;;10.25;100.00;98706.66;4906764;29;20520;-89
2022/03/31 00:26:59;;;;;;;43.13;15.40;;;;;;;10.38;100.00;98701.34;4919697;29;20107;-92
2022/03/31 00:29:25;;;;;;;43.60;16.35;;;;;;;10.32;100.00;98691.59;4920368;29;20044;-92
2022/03/31 00:31:51;;;;;;;40.13;16.55;;;;;;;10.30;100.00;98689.16;4919872;29;20028;-88
2022/03/31 00:34:16;;;;;;;39.78;16.48;;;;;;;10.23;100.00;98684.88;4919054;29;20175;-87
2022/03/31 00:36:42;;;;;;;49.85;18.27;;;;;;;10.20;100.00;98677.34;4919683;29;20059;-88
2022/03/31 00:41:51;;;;;;;43.28;16.45;;;;;;;10.22;100.00;98670.81;4918458;29;20043;-85
2022/03/31 00:44:17;;;;;;;38.17;15.02;;;;;;;10.18;100.00;98663.50;4917916;29;20502;-88
2022/03/31 00:46:47;;;;;;;37.35;16.08;;;;;;;10.35;100.00;98654.09;4920290;29;20084;-88
2022/03/31 00:49:13;;;;;;;39.17;15.65;;;;;;;10.43;100.00;98651.25;4902653;29;20044;-90
2022/03/31 00:51:38;;;;;;;35.00;16.13;;;;;;;10.26;100.00;98661.47;4920244;29;20040;-89
2022/03/31 00:54:04;;;;;;;36.47;16.38;;;;;;;10.36;100.00;98645.16;4919825;29;20055;-90
2022/03/31 00:56:31;;;;;;;36.40;16.67;;;;;;;10.29;100.00;98647.00;4919029;29;20036;-90
2022/03/31 00:58:57;;;;;;;35.08;15.98;;;;;;;10.26;100.00;98647.41;4919800;29;20072;-89
2022/03/31 01:01:23;;;;;;;35.72;16.15;;;;;;;10.17;100.00;98632.75;4901614;29;20071;-88
2022/03/31 01:03:48;;;;;;;31.60;16.40;;;;;;;10.29;100.00;98641.69;4919720;29;20055;-88
2022/03/31 01:06:14;;;;;;;40.13;17.17;;;;;;;10.08;100.00;98628.66;4923434;29;20514;-90
2022/03/31 01:08:40;;;;;;;37.17;16.60;;;;;;;10.16;100.00;98637.25;4923175;29;20471;-89
2022/03/31 01:11:06;;;;;;;39.90;18.13;;;;;;;10.02;100.00;98622.34;4919574;29;20036;-89
2022/03/31 01:13:33;;;;;;;41.47;20.15;;;;;;;10.02;100.00;98627.66;4919343;29;20088;-87
2022/03/31 01:15:58;;;;;;;43.05;19.63;;;;;;;10.13;100.00;98621.75;4920424;29;20032;-91
2022/03/31 01:18:25;;;;;;;51.80;20.98;;;;;;;10.09;100.00;98622.34;4920012;29;20039;-91
2022/03/31 01:20:50;;;;;;;47.40;21.80;;;;;;;9.96;100.00;98611.78;4905443;29;20389;-91
2022/03/31 01:23:16;;;;;;;49.20;21.88;;;;;;;10.09;100.00;98611.75;4922077;29;20043;-86
2022/03/31 01:25:43;;;;;;;56.88;22.25;;;;;;;10.07;100.00;98617.28;4903717;29;20044;-90
2022/03/31 01:28:08;;;;;;;42.13;21.77;;;;;;;10.14;100.00;98609.34;4922666;29;20031;-90
2022/03/31 01:30:34;;;;;;;42.25;22.70;;;;;;;10.03;100.00;98615.22;4922915;29;20464;-89
2022/03/31 01:33:02;;;;;;;45.08;21.85;;;;;;;10.05;100.00;98610.53;4921508;29;20398;-89
2022/03/31 01:35:28;;;;;;;46.42;23.20;;;;;;;10.09;100.00;98606.47;4919762;29;20088;-90
2022/03/31 01:37:54;;;;;;;45.70;22.52;;;;;;;10.10;100.00;98605.44;4924777;29;20040;-88
2022/03/31 01:40:20;;;;;;;47.45;22.30;;;;;;;10.05;100.00;98605.25;4931174;29;20064;-90
2022/03/31 01:42:46;;;;;;;55.90;24.25;;;;;;;9.98;100.00;98596.50;4931626;29;20481;-88
2022/03/31 01:45:14;;;;;;;45.17;22.95;;;;;;;9.99;100.00;98595.47;4926245;29;20056;-90
2022/03/31 01:47:41;;;;;;;49.08;24.27;;;;;;;10.06;100.00;98588.34;4922525;29;20043;-90
2022/03/31 01:50:10;;;;;;;41.70;23.00;;;;;;;9.94;100.00;98596.13;4905784;29;20044;-88
2022/03/31 01:52:37;;;;;;;53.60;22.50;;;;;;;9.86;100.00;98583.91;4920211;29;20066;-88
2022/03/31 01:55:04;;;;;;;45.72;22.77;;;;;;;9.74;100.00;98582.88;4902715;29;20033;-91
2022/03/31 01:57:30;;;;;;;50.28;23.50;;;;;;;9.76;100.00;98580.84;4918440;29;20044;-88
2022/03/31 01:59:55;;;;;;;46.35;23.17;;;;;;;9.70;100.00;98568.44;4901751;29;20105;-88
2022/03/31 02:02:22;;;;;;;48.05;22.60;;;;;;;9.81;100.00;98567.00;4919171;29;20118;-87
2022/03/31 02:04:48;;;;;;;50.97;24.60;;;;;;;9.66;100.00;98567.22;4917853;29;20037;-89
2022/03/31 02:07:13;;;;;;;45.95;23.63;;;;;;;9.61;100.00;98560.91;4918990;29;20559;-88
2022/03/31 02:09:39;;;;;;;52.97;23.90;;;;;;;9.90;100.00;98564.97;4918625;29;20669;-89
2022/03/31 02:12:06;;;;;;;50.00;24.70;;;;;;;9.94;100.00;98560.91;4918727;29;20040;-85
2022/03/31 02:14:39;;;;;;;53.50;24.13;;;;;;;9.72;100.00;98550.53;4921451;29;20040;-89
2022/03/31 02:17:06;;;;;;;53.63;22.83;;;;;;;9.78;100.00;98547.06;4922984;29;20037;-90
2022/03/31 02:19:32;;;;;;;52.42;22.77;;;;;;;9.90;100.00;98549.91;4905837;29;20044;-90
2022/03/31 02:21:58;;;;;;;52.42;21.65;;;;;;;9.78;100.00;98549.69;4926153;29;20060;-86
2022/03/31 02:24:24;;;;;;;45.08;23.25;;;;;;;9.91;100.00;98550.72;4943618;29;20052;-87
2022/03/31 02:26:50;;;;;;;58.42;24.13;;;;;;;9.81;100.00;98551.13;4936182;29;20039;-87
2022/03/31 02:29:16;;;;;;;50.67;23.27;;;;;;;9.83;100.00;98544.63;4923528;29;20024;-84
2022/03/31 02:31:42;;;;;;;53.35;22.40;;;;;;;9.78;100.00;98544.41;4930146;29;20040;-89
2022/03/31 02:34:07;;;;;;;58.55;22.30;;;;;;;9.78;100.00;98547.06;4922434;29;20039;-86
2022/03/31 02:36:33;;;;;;;45.28;20.90;;;;;;;9.92;100.00;98541.75;4906609;29;20070;-86
2022/03/31 02:38:58;;;;;;;58.97;22.15;;;;;;;9.94;100.00;98539.72;4904914;29;20032;-88
2022/03/31 02:41:25;;;;;;;51.33;21.02;;;;;;;9.92;100.00;98531.16;4922379;29;20115;-89
2022/03/31 02:43:54;;;;;;;53.90;21.10;;;;;;;9.80;100.00;98523.88;4922694;29;20031;-86
2022/03/31 02:46:19;;;;;;;50.85;19.70;;;;;;;9.86;100.00;98524.88;4921484;29;20093;-89
2022/03/31 02:48:45;;;;;;;49.35;18.48;;;;;;;9.98;100.00;98525.03;4889503;29;20040;-89
2022/03/31 02:51:10;;;;;;;51.40;21.55;;;;;;;9.82;100.00;98513.88;4905162;29;20044;-90
2022/03/31 02:56:23;;;;;;;58.42;20.38;;;;;;;10.10;100.00;98507.53;4924184;29;20032;-88
2022/03/31 02:58:49;;;;;;;52.55;21.25;;;;;;;10.03;100.00;98507.53;4923342;29;20535;-90
2022/03/31 03:01:14;;;;;;;51.50;20.50;;;;;;;9.98;100.00;98509.16;4924930;29;20226;-90
2022/03/31 03:03:40;;;;;;;49.92;21.60;;;;;;;10.05;100.00;98496.72;4905863;29;20043;-88
2022/03/31 03:06:06;;;;;;;53.35;21.15;;;;;;;9.98;100.00;98499.41;4922772;29;20036;-90
2022/03/31 03:08:31;;;;;;;48.72;20.42;;;;;;;10.12;100.00;98501.00;4929353;29;20131;-86
2022/03/31 03:10:57;;;;;;;56.35;21.35;;;;;;;10.01;100.00;98495.53;4930318;29;20040;-88
2022/03/31 03:13:23;;;;;;;60.53;20.27;;;;;;;10.16;100.00;98496.13;4928085;29;20096;-86
2022/03/31 03:15:49;;;;;;;48.63;20.33;;;;;;;10.05;100.00;98488.78;4924057;29;20028;-86
2022/03/31 03:18:18;;;;;;;46.50;19.13;;;;;;;9.96;100.00;98490.03;4906800;29;20407;-88
2022/03/31 03:20:46;;;;;;;46.30;19.52;;;;;;;9.99;100.00;98494.91;4924290;29;20396;-87
2022/03/31 03:23:12;;;;;;;53.05;21.00;;;;;;;10.05;100.00;98496.72;4921080;29;20141;-86
2022/03/31 03:25:37;;;;;;;44.58;19.33;;;;;;;10.10;100.00;98487.16;4922910;29;20078;-87
2022/03/31 03:28:03;;;;;;;48.40;19.23;;;;;;;9.92;100.00;98494.94;4923981;29;20032;-88
2022/03/31 03:30:29;;;;;;;43.33;20.60;;;;;;;9.88;100.00;98485.00;4920949;29;20498;-88
2022/03/31 03:32:55;;;;;;;50.55;22.88;;;;;;;9.95;100.00;98476.00;4904864;29;20119;-92
2022/03/31 03:35:23;;;;;;;45.13;20.38;;;;;;;10.00;100.00;98473.56;4922206;29;20036;-90
2022/03/31 03:37:49;;;;;;;51.97;22.13;;;;;;;9.98;100.00;98482.69;4922170;29;20070;-87
2022/03/31 03:40:15;;;;;;;49.20;21.45;;;;;;;9.96;100.00;98471.53;4921142;29;20044;-90
2022/03/31 03:42:50;;;;;;;44.95;21.27;;;;;;;9.88;100.00;98477.06;4920933;29;20037;-88
2022/03/31 03:45:19;;;;;;;41.53;21.95;;;;;;;9.97;100.00;98476.63;4927577;29;20495;-89
2022/03/31 03:47:45;;;;;;;48.80;22.48;;;;;;;9.88;100.00;98466.47;4923825;29;20056;-92
2022/03/31 03:50:11;;;;;;;40.45;21.70;;;;;;;9.82;100.00;98463.63;4907295;29;20048;-88
2022/03/31 03:52:37;;;;;;;43.90;21.77;;;;;;;9.70;100.00;98464.47;4924509;29;20039;-89
2022/03/31 03:55:04;;;;;;;52.63;22.42;;;;;;;9.83;100.00;98461.78;4907687;29;20124;-88
2022/03/31 03:57:30;;;;;;;53.90;23.00;;;;;;;9.86;100.00;98456.91;4922793;29;20436;-90
2022/03/31 03:59:56;;;;;;;55.47;21.63;;;;;;;9.96;100.00;98458.28;4904919;29;20488;-90
2022/03/31 04:02:22;;;;;;;43.00;19.67;;;;;;;9.86;100.00;98459.56;4922491;29;20044;-88
2022/03/31 04:04:47;;;;;;;48.00;19.65;;;;;;;9.91;100.00;98456.25;4922858;29;20111;-90
2022/03/31 04:07:13;;;;;;;55.42;21.85;;;;;;;9.81;100.00;98446.13;4923553;29;20020;-86
2022/03/31 04:09:39;;;;;;;42.65;18.60;;;;;;;10.01;100.00;98450.56;4909458;29;20445;-88
2022/03/31 04:12:05;;;;;;;42.20;18.80;;;;;;;9.82;100.00;98447.75;4939148;29;20096;-88
2022/03/31 04:14:31;;;;;;;44.72;16.92;;;;;;;9.91;100.00;98460.75;4940131;29;20016;-84
2022/03/31 04:16:57;;;;;;;44.70;18.10;;;;;;;10.02;100.00;98452.16;4924281;29;20419;-87
2022/03/31 04:19:22;;;;;;;42.55;16.38;;;;;;;10.09;100.00;98459.06;4905574;29;20567;-86
2022/03/31 04:21:49;;;;;;;43.95;17.58;;;;;;;9.96;100.00;98458.28;4923812;29;20036;-88
2022/03/31 04:24:14;;;;;;;54.65;20.48;;;;;;;9.69;100.00;98455.72;4910838;29;20026;-89
2022/03/31 04:26:40;;;;;;;44.30;19.38;;;;;;;9.71;100.00;98456.31;4913422;29;20544;-90
2022/03/31 04:29:08;;;;;;;48.35;20.48;;;;;;;9.66;100.00;98457.97;4936519;29;20036;-91
2022/03/31 04:31:40;;;;;;;53.53;20.83;;;;;;;9.69;100.00;98458.38;4919957;29;20036;-91
2022/03/31 04:34:08;;;;;;;46.90;20.52;;;;;;;9.64;100.00;98452.06;4918776;29;20047;-90
2022/03/31 04:36:34;;;;;;;54.42;22.15;;;;;;;9.59;100.00;98444.75;4914068;24;20049;-83
2022/03/31 04:39:03;;;;;;;49.63;20.30;;;;;;;9.56;100.00;98445.16;4925661;29;20076;-84
2022/03/31 04:41:29;;;;;;;49.05;20.77;;;;;;;9.57;100.00;98444.16;4958061;29;20074;-83
2022/03/31 04:43:55;;;;;;;53.67;20.55;;;;;;;9.49;100.00;98441.72;4941021;29;20063;-86
2022/03/31 04:46:23;;;;;;;53.70;19.92;;;;;;;9.65;100.00;98440.47;4935800;29;20036;-89
2022/03/31 04:48:51;;;;;;;51.22;19.52;;;;;;;9.61;100.00;98434.75;4945695;29;20099;-89
2022/03/31 04:51:17;;;;;;;46.40;20.10;;;;;;;9.71;100.00;98435.16;4925167;29;20047;-87
2022/03/31 04:53:42;;;;;;;51.30;21.80;;;;;;;9.71;100.00;98435.16;4944497;29;20123;-89
2022/03/31 04:56:08;;;;;;;51.25;21.48;;;;;;;9.56;100.00;98436.41;4906712;29;20058;-87
2022/03/31 04:58:36;;;;;;;49.38;21.83;;;;;;;9.74;100.00;98431.31;4938661;29;20050;-90
2022/03/31 05:01:07;;;;;;;43.97;20.05;;;;;;;9.76;100.00;98424.78;4944171;29;20043;-91
2022/03/31 05:03:32;;;;;;;45.50;18.92;;;;;;;9.79;100.00;98427.00;4939529;29;20032;-87
2022/03/31 05:06:01;;;;;;;39.75;19.75;;;;;;;9.87;100.00;98433.91;4939393;29;20047;-89
2022/03/31 05:08:26;;;;;;;45.55;21.45;;;;;;;9.89;100.00;98434.50;4942246;29;20036;-88
2022/03/31 05:10:52;;;;;;;50.80;20.65;;;;;;;9.78;100.00;98430.66;4937230;29;20069;-87
2022/03/31 05:13:17;;;;;;;51.28;21.67;;;;;;;9.76;100.00;98431.91;4937367;29;20040;-85
2022/03/31 05:15:43;;;;;;;44.00;19.85;;;;;;;9.91;100.00;98431.66;4920346;29;20054;-84
2022/03/31 05:18:08;;;;;;;48.15;20.63;;;;;;;10.01;100.00;98429.38;4938651;29;20031;-86
2022/03/31 05:20:34;;;;;;;50.92;20.40;;;;;;;9.85;100.00;98426.16;4920201;29;20050;-85
2022/03/31 05:23:00;;;;;;;46.88;19.92;;;;;;;9.78;100.00;98430.66;4918930;29;20071;-83
2022/03/31 05:25:25;;;;;;;57.42;21.27;;;;;;;9.81;100.00;98424.94;4935821;29;20031;-82
2022/03/31 05:27:51;;;;;;;51.40;22.58;;;;;;;9.83;100.00;98417.63;4935450;29;20384;-82
2022/03/31 05:30:19;;;;;;;53.83;24.08;;;;;;;9.68;100.00;98409.13;4936295;29;20087;-85
2022/03/31 05:32:46;;;;;;;54.47;23.05;;;;;;;9.60;100.00;98406.72;4937418;29;20388;-87
2022/03/31 05:35:13;;;;;;;61.53;25.80;;;;;;;9.55;100.00;98409.16;4943889;29;20036;-87
2022/03/31 05:37:42;;;;;;;53.90;25.67;;;;;;;9.54;100.00;98412.03;4941402;29;20072;-86
2022/03/31 05:40:11;;;;;;;53.25;26.85;;;;;;;9.54;100.00;98412.03;4937278;29;20114;-85
2022/03/31 05:42:37;;;;;;;60.60;26.65;;;;;;;9.51;100.00;98407.94;4905930;29;20550;-88
2022/03/31 05:45:04;;;;;;;62.22;26.30;;;;;;;9.51;100.00;98407.94;4918297;29;20118;-87
2022/03/31 05:47:30;;;;;;;55.40;26.00;;;;;;;9.56;100.00;98405.50;4936333;29;20055;-83
2022/03/31 05:49:56;;;;;;;54.72;26.83;;;;;;;9.58;100.00;98403.44;4939316;29;20031;-83
2022/03/31 05:52:21;;;;;;;68.90;24.83;;;;;;;9.51;100.00;98396.56;4901499;29;20040;-84
2022/03/31 05:54:50;;;;;;;58.72;25.30;;;;;;;9.44;100.00;98396.59;4918439;29;20032;-84
2022/03/31 05:57:16;;;;;;;49.67;24.77;;;;;;;9.48;100.00;98400.41;4935156;29;20064;-86
2022/03/31 05:59:42;;;;;;;60.03;25.65;;;;;;;9.53;100.00;98405.09;4927671;29;20031;-88
2022/03/31 06:02:11;;;;;;;53.88;24.63;;;;;;;9.49;100.00;98404.69;4953305;29;20108;-87
2022/03/31 06:04:37;;;;;;;65.05;25.75;;;;;;;9.47;100.00;98401.47;4943974;29;20032;-89
2022/03/31 06:07:04;;;;;;;48.60;23.48;;;;;;;9.48;100.00;98397.00;4936987;29;20067;-90
2022/03/31 06:09:29;;;;;;;55.42;24.45;;;;;;;9.52;100.00;98399.00;4954358;29;20464;-89
2022/03/31 06:11:55;;;;;;;53.72;23.98;;;;;;;9.58;100.00;98397.38;4957221;29;20059;-88
2022/03/31 06:14:21;;;;;;;56.80;24.08;;;;;;;9.48;100.00;98397.00;4943995;29;20090;-89
2022/03/31 06:16:49;;;;;;;59.35;24.02;;;;;;;9.40;100.00;98390.09;4941496;29;20123;-90
2022/03/31 06:19:15;;;;;;;50.78;23.23;;;;;;;9.41;100.00;98391.72;4923371;29;20047;-88
2022/03/31 06:21:41;;;;;;;58.50;24.27;;;;;;;9.37;100.00;98395.78;4939051;29;20188;-86
2022/03/31 06:24:07;;;;;;;50.50;24.38;;;;;;;9.43;100.00;98388.84;4940033;29;20460;-86
2022/03/31 06:26:33;;;;;;;47.80;22.92;;;;;;;9.49;100.00;98393.31;4939030;29;20042;-88
2022/03/31 06:29:00;;;;;;;48.53;21.65;;;;;;;9.42;100.00;98390.69;4939320;29;20047;-88
2022/03/31 06:31:25;;;;;;;58.50;22.77;;;;;;;9.33;100.00;98391.91;4939128;29;20051;-85
2022/03/31 06:33:52;;;;;;;52.08;21.80;;;;;;;9.28;100.00;98391.72;4922150;29;20039;-86
2022/03/31 06:36:19;;;;;;;58.33;23.27;;;;;;;9.41;100.00;98391.72;4938813;29;20407;-85
2022/03/31 06:38:46;;;;;;;48.55;22.02;;;;;;;9.38;100.00;98386.81;4938819;29;20036;-87
2022/03/31 06:41:15;;;;;;;54.08;20.85;;;;;;;9.44;100.00;98380.72;4939239;29;20072;-86
2022/03/31 06:43:45;;;;;;;50.45;18.42;;;;;;;9.53;100.00;98382.13;4943515;29;20040;-90
2022/03/31 06:46:12;;;;;;;46.15;17.08;;;;;;;9.61;100.00;98376.59;4939455;29;20057;-85
2022/03/31 06:48:41;;;;;;;45.70;17.13;;;;;;;9.62;100.00;98378.22;4940111;29;20043;-85
2022/03/31 06:51:08;;;;;;;42.22;16.15;;;;;;;9.55;100.00;98366.03;4922860;29;20067;-89
2022/03/31 06:53:36;;;;;;;39.83;15.07;;;;;;;9.55;100.00;98372.13;4939983;29;20070;-87
2022/03/31 06:56:04;;;;;;;41.95;14.00;;;;;;;9.74;100.00;98371.25;4923126;29;20035;-88
2022/03/31 06:58:30;;;;;;;38.15;13.63;;;;;;;9.85;100.00;98361.84;4934043;29;20103;-85
2022/03/31 07:00:56;;;;;;;37.30;13.45;;;;;;;9.82;100.00;98371.03;4921424;29;20039;-85
2022/03/31 07:03:23;;;;;;;40.70;12.63;;;;;;;9.88;100.00;98371.22;4920695;29;20080;-88
2022/03/31 07:05:49;;;;;;;33.42;10.90;;;;;;;9.83;100.00;98370.03;4921204;29;20051;-84
2022/03/31 07:08:14;;;;;;;33.30;10.73;;;;;;;9.77;100.00;98364.75;4921228;29;20032;-90
2022/03/31 07:10:40;;;;;;;33.08;10.52;;;;;;;9.98;100.00;98368.91;4944224;29;20039;-84
2022/03/31 07:13:06;;;;;;;31.20;9.50;;;;;;;10.12;100.00;98368.66;4938888;29;20082;-87
2022/03/31 07:15:33;;;;;;;33.65;9.35;;;;;;;10.04;100.00;98366.25;4921892;29;20050;-88
2022/03/31 07:18:03;;;;;;;31.55;9.60;;;;;;;10.21;100.00;98372.69;4935221;29;20047;-85
2022/03/31 07:20:29;;;;;;;31.75;7.82;;;;;;;10.36;100.00;98370.59;4932131;29;20039;-88
2022/03/31 07:22:55;;;;;;;27.50;8.38;;;;;;;10.38;100.00;98371.19;4940332;29;20043;-84
2022/03/31 07:25:21;;;;;;;25.00;7.20;;;;;;;10.40;100.00;98364.88;4939947;29;20035;-90
2022/03/31 07:27:48;;;;;;;25.88;7.25;;;;;;;10.27;100.00;98363.13;4942328;29;20448;-92
2022/03/31 07:30:16;;;;;;;27.17;6.85;;;;;;;10.37;100.00;98372.19;4945993;29;20100;-86
2022/03/31 07:32:50;;;;;;;28.77;6.15;;;;;;;10.58;100.00;98376.34;4947475;29;20052;-89
2022/03/31 07:35:16;;;;;;;23.10;6.50;;;;;;;10.51;100.00;98366.81;4946730;29;20044;-89
2022/03/31 07:37:42;;;;;;;26.00;6.65;;;;;;;10.61;100.00;98373.28;4925090;29;20032;-90
2022/03/31 07:40:08;;;;;;;26.92;6.53;;;;;;;10.52;100.00;98374.56;4925529;29;20040;-90
2022/03/31 07:42:34;;;;;;;25.00;5.80;;;;;;;10.69;100.00;98374.84;4943171;29;20122;-87
2022/03/31 07:44:59;;;;;;;27.58;7.00;;;;;;;10.65;100.00;98373.66;4936797;29;20499;-89
2022/03/31 07:47:25;;;;;;;30.00;5.55;;;;;;;10.70;100.00;98374.66;4905247;29;20088;-88
2022/03/31 07:49:52;;;;;;;34.85;6.47;;;;;;;10.62;100.00;98364.31;4903728;29;20472;-87
2022/03/31 07:52:21;;;;;;;23.00;6.32;;;;;;;10.71;100.00;98367.50;4937405;29;20039;-92
2022/03/31 07:54:48;;;;;;;28.33;7.10;;;;;;;10.55;100.00;98360.88;4959614;29;20047;-87
2022/03/31 07:57:13;;;;;;;19.38;5.65;;;;;;;10.46;100.00;98354.22;4917272;29;20035;-88
2022/03/31 07:59:39;;;;;;;34.67;6.60;;;;;;;10.32;100.00;98360.63;4940521;29;20384;-89
2022/03/31 08:02:06;;;;;;;27.60;6.95;;;;;;;10.25;100.00;98357.22;4916979;29;20031;-91
2022/03/31 08:04:35;;;;;;;33.42;7.22;;;;;;;10.27;100.00;98357.81;4936113;29;20035;-86
2022/03/31 08:07:01;;;;;;;30.33;7.28;;;;;;;10.12;100.00;98351.97;4939837;29;20518;-84
2022/03/31 08:09:27;;;;;;;33.30;7.20;;;;;;;10.18;100.00;98351.94;4938239;29;20063;-89
2022/03/31 08:11:52;;;;;;;31.35;7.22;;;;;;;10.13;100.00;98345.66;4926731;29;20039;-83
2022/03/31 08:17:11;;;;;;;33.55;7.30;;;;;;;10.35;100.00;98341.66;4873295;29;20079;-87
2022/03/31 08:19:40;;;;;;;30.35;7.60;;;;;;;10.27;100.00;98345.38;4867492;29;20526;-86
2022/03/31 08:22:05;;;;;;;34.85;7.63;;;;;;;10.32;100.00;98347.41;4855257;29;20040;-84
2022/03/31 08:24:31;;;;;;;30.10;6.93;;;;;;;10.44;100.00;98350.97;4861079;29;20097;-85
2022/03/31 08:26:59;;;;;;;36.17;7.28;;;;;;;10.29;100.00;98348.63;4852205;29;20034;-87
2022/03/31 08:29:25;;;;;;;22.52;6.05;;;;;;;10.29;100.00;98353.13;4839248;29;20045;-90
2022/03/31 08:31:52;;;;;;;25.60;5.72;;;;;;;10.26;100.00;98353.53;4859247;29;20051;-84
2022/03/31 08:34:17;;;;;;;20.02;5.88;;;;;;;10.38;100.00;98346.53;4871045;29;20143;-83
2022/03/31 08:36:43;;;;;;;22.25;5.97;;;;;;;10.48;100.00;98349.53;4863848;29;20049;-82
2022/03/31 08:39:08;;;;;;;21.38;6.13;;;;;;;10.36;100.00;98356.53;4857124;29;20049;-85
2022/03/31 08:41:34;;;;;;;22.00;6.50;;;;;;;10.17;100.00;98350.34;4850674;29;20091;-84
2022/03/31 08:44:02;;;;;;;30.60;5.45;;;;;;;10.08;100.00;98345.47;4862193;29;20054;-84
2022/03/31 08:46:34;;;;;;;22.45;5.90;;;;;;;10.07;100.00;98352.63;4853678;29;20559;-88
2022/03/31 08:49:01;;;;;;;22.00;5.95;;;;;;;10.10;100.00;98348.72;4855756;29;20034;-85
2022/03/31 08:51:27;;;;;;;29.45;6.93;;;;;;;10.08;100.00;98351.56;4845697;29;20050;-89
2022/03/31 08:53:53;;;;;;;28.40;7.00;;;;;;;10.07;100.00;98349.97;4863586;29;20038;-86
2022/03/31 08:56:19;;;;;;;23.48;4.97;;;;;;;10.06;100.00;98350.97;4847043;29;20137;-90
2022/03/31 08:58:46;;;;;;;26.95;6.35;;;;;;;10.04;100.00;98344.28;4844700;29;20492;-88
2022/03/31 09:01:14;;;;;;;23.95;5.18;;;;;;;10.02;100.00;98351.59;4845156;29;20037;-85
2022/03/31 09:03:40;;;;;;;23.08;5.47;;;;;;;10.10;100.00;98338.13;4853055;29;20037;-88
2022/03/31 09:06:09;;;;;;;26.27;5.50;;;;;;;10.04;100.00;98344.28;4834409;29;20041;-89
2022/03/31 09:08:37;;;;;;;29.10;5.75;;;;;;;9.99;100.00;98346.72;4852978;29;20409;-92
2022/03/31 09:11:03;;;;;;;25.00;6.30;;;;;;;10.02;100.00;98343.66;4842356;29;20033;-86
2022/03/31 09:13:34;;;;;;;28.00;5.97;;;;;;;10.02;100.00;98341.00;4837990;29;20034;-85
2022/03/31 09:16:02;;;;;;;19.27;6.00;;;;;;;10.12;100.00;98336.06;4854858;29;20057;-87
2022/03/31 09:18:30;;;;;;;29.15;6.47;;;;;;;10.10;100.00;98333.66;4857712;29;20034;-88
2022/03/31 09:20:59;;;;;;;25.17;6.47;;;;;;;10.19;100.00;98336.88;4858975;29;20076;-88
2022/03/31 09:23:28;;;;;;;29.42;7.28;;;;;;;10.07;100.00;98325.34;4839449;29;20045;-87
2022/03/31 09:26:05;;;;;;;18.85;6.30;;;;;;;10.12;100.00;98328.94;4847818;29;20816;-89
2022/03/31 09:28:31;;;;;;;23.35;6.82;;;;;;;10.09;100.00;98325.91;4862216;29;20053;-87
2022/03/31 09:30:57;;;;;;;23.88;6.88;;;;;;;10.09;100.00;98321.44;4845945;29;20047;-89
2022/03/31 09:33:35;;;;;;;20.17;6.30;;;;;;;10.12;100.00;98322.84;4863735;29;20089;-87
2022/03/31 09:36:08;;;;;;;23.02;5.50;;;;;;;10.21;100.00;98318.94;4856538;29;20394;-90
2022/03/31 09:38:38;;;;;;;26.60;6.88;;;;;;;10.33;100.00;98318.06;4860025;29;20049;-92
2022/03/31 09:41:17;;;;;;;28.38;7.03;;;;;;;10.31;100.00;98314.00;4851895;29;20573;-91
2022/03/31 09:43:43;;;;;;;27.10;6.93;;;;;;;10.40;100.00;98312.72;4854012;29;20099;-92
2022/03/31 09:46:21;;;;;;;18.23;5.70;;;;;;;10.51;100.00;98312.00;4852863;29;20402;-88
2022/03/31 09:48:48;;;;;;;19.63;5.95;;;;;;;10.54;100.00;98319.53;4855606;29;20105;-88
2022/03/31 09:51:14;;;;;;;24.88;6.05;;;;;;;10.43;100.00;98322.88;4836563;29;20069;-91
2022/03/31 09:53:41;;;;;;;25.33;6.82;;;;;;;10.36;100.00;98311.53;4837516;29;20040;-88
2022/03/31 09:56:08;;;;;;;21.13;6.90;;;;;;;10.39;100.00;98311.09;4835317;29;20366;-86
2022/03/31 09:58:38;;;;;;;20.73;6.35;;;;;;;10.36;100.00;98308.88;4852524;29;20041;-87
2022/03/31 10:01:04;;;;;;;24.33;6.90;;;;;;;10.34;100.00;98305.66;4836433;29;20091;-88
2022/03/31 10:03:31;;;;;;;24.80;7.38;;;;;;;10.27;100.00;98297.72;4858405;29;20105;-91
2022/03/31 10:05:58;;;;;;;23.65;6.47;;;;;;;10.36;100.00;98299.09;4854140;29;20533;-90
2022/03/31 10:08:32;;;;;;;24.75;7.53;;;;;;;10.60;100.00;98304.63;4853441;29;20042;-90
2022/03/31 10:11:35;;;;;;;18.73;7.20;;;;;;;10.69;100.00;98290.91;4835216;29;20136;-92
2022/03/31 10:14:20;;;;;;;29.08;7.93;;;;;;;10.83;100.00;98297.72;4837181;29;20072;-86
2022/03/31 10:16:57;;;;;;;27.95;7.03;;;;;;;10.90;100.00;98303.72;4873856;29;20085;-85
2022/03/31 10:19:44;;;;;;;27.42;8.35;;;;;;;10.78;100.00;98305.47;4879264;29;20046;-88
2022/03/31 10:24:41;;;;;;;27.45;7.88;;;;;;;10.64;100.00;98303.97;4872209;29;20046;-89
2022/03/31 10:25:10;;;;;;;24.48;7.88;;;;;;;10.61;100.00;98298.28;4871478;29;20034;-88
2022/03/31 10:27:40;;;;;;;27.73;8.63;;;;;;;10.44;100.00;98308.59;4836083;29;20042;-88
2022/03/31 10:30:08;;;;;;;26.77;8.82;;;;;;;10.46;100.00;98305.75;4843565;29;20382;-87
2022/03/31 10:32:34;;;;;;;25.25;8.50;;;;;;;10.49;100.00;98300.84;4827086;29;20044;-86
2022/03/31 10:34:59;;;;;;;30.52;9.30;;;;;;;10.51;100.00;98298.78;4860661;29;20130;-83
2022/03/31 10:37:34;;;;;;;19.88;8.50;;;;;;;10.69;100.00;98290.91;4841262;29;20592;-82
2022/03/31 10:40:00;;;;;;;21.83;8.95;;;;;;;10.62;100.00;98290.13;4855145;29;20497;-83
2022/03/31 10:42:26;;;;;;;23.20;8.18;;;;;;;10.59;100.00;98281.81;4856990;29;20109;-84
2022/03/31 10:45:14;;;;;;;26.83;8.85;;;;;;;10.63;100.00;98267.94;4860289;29;20052;-86
2022/03/31 10:47:43;;;;;;;30.45;7.93;;;;;;;10.81;100.00;98273.25;4859127;29;20044;-89
2022/03/31 10:50:22;;;;;;;27.48;8.75;;;;;;;11.11;100.00;98275.19;4825507;29;20049;-87
2022/03/31 10:53:03;;;;;;;25.30;8.23;;;;;;;11.32;100.00;98259.66;4852983;29;20042;-86
2022/03/31 10:55:47;;;;;;;24.35;8.75;;;;;;;11.61;100.00;98263.38;4858825;29;20080;-87
2022/03/31 10:58:33;;;;;;;22.65;7.60;;;;;;;11.93;100.00;98260.56;4863106;29;20036;-89
2022/03/31 11:01:05;;;;;;;18.23;8.35;;;;;;;11.97;100.00;98259.06;4848368;29;20048;-85
2022/03/31 11:03:31;;;;;;;25.13;8.50;;;;;;;12.08;100.00;98259.09;4863240;29;20133;-89
2022/03/31 11:05:59;;;;;;;26.15;8.27;;;;;;;11.91;100.00;98243.00;4866956;29;20060;-91
2022/03/31 11:08:26;;;;;;;25.75;7.68;;;;;;;11.88;100.00;98248.78;4835958;29;20494;-87
2022/03/31 11:10:53;;;;;;;25.50;8.25;;;;;;;12.29;100.00;98249.81;4853830;29;20060;-89
2022/03/31 11:13:33;;;;;;;24.33;7.82;;;;;;;12.26;100.00;98239.63;4851962;29;20050;-89
2022/03/31 11:15:59;;;;;;;22.13;7.90;;;;;;;12.44;100.00;98242.19;4863341;29;20068;-87
2022/03/31 11:18:24;;;;;;;23.63;8.23;;;;;;;12.96;100.00;98235.13;4879551;29;20061;-89
2022/03/31 11:21:10;;;;;;;20.30;7.03;;;;;;;13.91;100.00;98238.97;4880019;29;20044;-91
2022/03/31 11:23:46;;;;;;;23.55;7.13;;;;;;;14.84;100.00;98235.72;4852364;29;20506;-90
2022/03/31 11:26:15;;;;;;;27.33;6.50;;;;;;;15.39;95.74;98238.31;4837838;29;20046;-90